Time;durP1;ratioP1;P1;durP2;ratioP2;P2;SDS_P1;SDS_P2;PMS_P1;PMS_P2;Temp;Humidity;BMP_temperature;BMP_pressure;BME280_temperature;BME280_humidity;BME280_pressure;Samples;Min_cycle;Max_cycle;Signal;HPM_P1;HPM_P2
2022/03/30 00:00:12;;;;;;;42.60;20.43;;;6.30;99.90;;;;;;5097742;28;20185;-67
2022/03/30 00:02:37;;;;;;;40.30;20.20;;;6.30;99.90;;;;;;5097306;28;20343;-66
2022/03/30 00:05:03;;;;;;;52.20;24.70;;;6.40;99.90;;;;;;5098109;28;20653;-65
2022/03/30 00:07:31;;;;;;;47.93;25.93;;;6.30;99.90;;;;;;5098140;28;20193;-66
2022/03/30 00:10:07;;;;;;;53.57;25.83;;;6.30;99.90;;;;;;5098588;28;20604;-66
2022/03/30 00:12:34;;;;;;;51.07;25.67;;;6.30;99.90;;;;;;5099831;28;20663;-66
2022/03/30 00:15:00;;;;;;;43.00;19.53;;;6.20;99.90;;;;;;5101024;28;20537;-66
2022/03/30 00:17:26;;;;;;;38.77;18.70;;;6.10;99.90;;;;;;5101822;28;20234;-66
2022/03/30 00:19:51;;;;;;;47.83;23.97;;;6.10;99.90;;;;;;5102600;28;20232;-67
2022/03/30 00:22:17;;;;;;;42.23;19.47;;;6.10;99.90;;;;;;5084635;28;20186;-65
2022/03/30 00:24:46;;;;;;;58.13;25.30;;;6.10;99.90;;;;;;5102172;28;20166;-67
2022/03/30 00:27:12;;;;;;;46.40;19.77;;;6.10;99.90;;;;;;5098621;28;20237;-66
2022/03/30 00:29:37;;;;;;;50.67;20.20;;;6.00;99.90;;;;;;5097305;28;20239;-66
2022/03/30 00:32:04;;;;;;;38.73;18.90;;;6.10;99.90;;;;;;5096992;28;20599;-66
2022/03/30 00:34:30;;;;;;;55.30;24.27;;;6.00;99.90;;;;;;5096880;28;20176;-66
2022/03/30 00:36:55;;;;;;;56.83;24.27;;;6.00;99.90;;;;;;5096914;28;20605;-65
2022/03/30 00:39:21;;;;;;;69.43;30.93;;;6.00;99.90;;;;;;5097001;28;20220;-66
2022/03/30 00:41:47;;;;;;;70.33;31.70;;;5.90;99.90;;;;;;5096933;28;20167;-66
2022/03/30 00:44:14;;;;;;;51.87;28.23;;;5.90;99.90;;;;;;5097180;28;20573;-67
2022/03/30 00:46:43;;;;;;;59.13;29.63;;;5.80;99.90;;;;;;5097313;28;20178;-66
2022/03/30 00:49:09;;;;;;;45.27;21.43;;;5.80;99.90;;;;;;5097140;28;20583;-67
2022/03/30 00:51:35;;;;;;;53.83;26.10;;;5.80;99.90;;;;;;5097442;28;20359;-67
2022/03/30 00:54:01;;;;;;;40.40;21.37;;;5.80;99.90;;;;;;5096871;28;20694;-69
2022/03/30 00:56:29;;;;;;;53.53;27.30;;;5.70;99.90;;;;;;5078578;28;20264;-68
2022/03/30 00:58:55;;;;;;;59.13;26.90;;;5.70;99.90;;;;;;5096961;28;20285;-67
2022/03/30 01:01:22;;;;;;;57.90;26.17;;;5.70;99.90;;;;;;5096150;28;20165;-66
2022/03/30 01:03:48;;;;;;;52.43;25.70;;;5.60;99.90;;;;;;5095975;28;20156;-68
2022/03/30 01:06:13;;;;;;;52.80;26.33;;;5.60;99.90;;;;;;5097098;28;20244;-66
2022/03/30 01:08:39;;;;;;;51.43;26.30;;;5.60;99.90;;;;;;5078555;28;20265;-66
2022/03/30 01:11:05;;;;;;;56.17;28.47;;;5.70;99.90;;;;;;5096837;28;20306;-66
2022/03/30 01:13:33;;;;;;;54.47;26.67;;;5.70;99.90;;;;;;5096807;28;20551;-66
2022/03/30 01:15:58;;;;;;;51.93;26.20;;;5.60;99.90;;;;;;5096604;28;20151;-66
2022/03/30 01:18:24;;;;;;;54.33;25.80;;;5.60;99.90;;;;;;5096499;28;20242;-66
2022/03/30 01:20:50;;;;;;;55.23;26.23;;;5.60;99.90;;;;;;5097063;28;20214;-65
2022/03/30 01:23:17;;;;;;;53.23;25.53;;;5.60;99.90;;;;;;5078782;28;20178;-66
2022/03/30 01:25:43;;;;;;;51.17;25.43;;;5.50;99.90;;;;;;5097050;28;20156;-67
2022/03/30 01:28:09;;;;;;;43.20;21.37;;;5.40;99.90;;;;;;5096340;28;20177;-66
2022/03/30 01:33:20;;;;;;;58.23;26.73;;;5.40;99.90;;;;;;5096125;28;20205;-65
2022/03/30 01:35:45;;;;;;;52.97;25.20;;;5.30;99.90;;;;;;5081367;28;20171;-66
2022/03/30 01:38:11;;;;;;;54.23;26.73;;;5.30;99.90;;;;;;5094375;28;20178;-65
2022/03/30 01:40:38;;;;;;;54.57;25.90;;;5.20;99.90;;;;;;5096566;28;20503;-66
2022/03/30 01:43:04;;;;;;;50.93;24.70;;;5.20;99.90;;;;;;5095712;28;20191;-66
2022/03/30 01:45:30;;;;;;;52.33;25.93;;;5.20;99.90;;;;;;5097884;28;20163;-66
2022/03/30 01:47:59;;;;;;;55.57;26.00;;;5.30;99.90;;;;;;5096658;28;20156;-65
2022/03/30 01:50:27;;;;;;;53.10;25.87;;;5.40;99.90;;;;;;5097452;28;20215;-68
2022/03/30 01:52:53;;;;;;;57.40;26.93;;;5.50;99.90;;;;;;5095926;28;20199;-66
2022/03/30 01:55:19;;;;;;;58.73;27.13;;;5.50;99.90;;;;;;5061210;28;20719;-67
2022/03/30 01:57:45;;;;;;;54.93;24.87;;;5.40;99.90;;;;;;5072737;28;20188;-66
2022/03/30 02:00:15;;;;;;;57.60;26.30;;;5.40;99.90;;;;;;5059130;28;20517;-67
2022/03/30 02:02:41;;;;;;;54.63;26.77;;;5.50;99.90;;;;;;5076891;28;20182;-66
2022/03/30 02:05:08;;;;;;;55.73;26.00;;;5.60;99.90;;;;;;5075795;28;20188;-66
2022/03/30 02:07:38;;;;;;;51.53;25.00;;;5.50;99.90;;;;;;5074805;28;20160;-65
2022/03/30 02:10:06;;;;;;;54.57;25.77;;;5.50;99.90;;;;;;5074839;28;20219;-66
2022/03/30 02:12:33;;;;;;;55.00;26.83;;;5.50;99.90;;;;;;5075078;28;20223;-65
2022/03/30 02:14:59;;;;;;;51.13;25.60;;;5.60;99.90;;;;;;5075188;28;20196;-66
2022/03/30 02:17:26;;;;;;;50.00;24.83;;;5.50;99.90;;;;;;5075155;28;20165;-67
2022/03/30 02:19:53;;;;;;;53.97;26.00;;;5.50;99.90;;;;;;5074947;28;20249;-67
2022/03/30 02:22:19;;;;;;;60.63;25.93;;;5.40;99.90;;;;;;5074779;28;20558;-66
2022/03/30 02:24:45;;;;;;;52.70;25.33;;;5.50;99.90;;;;;;5074243;28;20160;-65
2022/03/30 02:27:10;;;;;;;43.20;19.27;;;5.60;99.90;;;;;;5065781;28;20677;-65
2022/03/30 02:29:36;;;;;;;51.37;24.77;;;5.60;99.90;;;;;;5055040;28;20175;-65
2022/03/30 02:32:03;;;;;;;44.67;19.43;;;5.60;99.90;;;;;;5054423;28;20289;-66
2022/03/30 02:34:28;;;;;;;52.97;25.37;;;5.60;99.90;;;;;;5054496;28;20176;-67
2022/03/30 02:36:54;;;;;;;39.47;19.70;;;5.60;99.90;;;;;;5054599;28;20179;-66
2022/03/30 02:39:19;;;;;;;47.33;20.90;;;5.60;99.90;;;;;;5055151;28;20248;-65
2022/03/30 02:41:46;;;;;;;47.57;23.87;;;5.50;99.90;;;;;;5037681;28;20568;-66
2022/03/30 02:44:12;;;;;;;40.53;18.47;;;5.60;99.90;;;;;;5056062;28;20153;-66
2022/03/30 02:46:38;;;;;;;51.77;24.43;;;5.60;99.90;;;;;;5059484;28;20154;-66
2022/03/30 02:49:05;;;;;;;53.37;26.47;;;5.60;99.90;;;;;;5062339;28;20174;-66
2022/03/30 02:51:31;;;;;;;50.33;25.43;;;5.60;99.90;;;;;;5059245;28;20168;-66
2022/03/30 02:53:57;;;;;;;40.60;18.83;;;5.60;99.90;;;;;;5064408;28;20672;-67
2022/03/30 02:56:23;;;;;;;46.53;23.27;;;5.70;99.90;;;;;;5077113;28;20159;-67
2022/03/30 02:58:49;;;;;;;57.40;26.30;;;5.70;99.90;;;;;;5074739;28;20161;-66
2022/03/30 03:01:14;;;;;;;38.50;19.37;;;5.60;99.90;;;;;;5074120;28;20165;-66
2022/03/30 03:03:43;;;;;;;51.70;24.60;;;5.70;99.90;;;;;;5074247;28;20165;-65
2022/03/30 03:06:09;;;;;;;53.93;26.13;;;5.60;99.90;;;;;;5073593;28;20158;-67
2022/03/30 03:08:35;;;;;;;52.70;25.17;;;5.60;99.90;;;;;;5073690;28;20250;-65
2022/03/30 03:11:00;;;;;;;63.37;26.70;;;5.60;99.90;;;;;;5074087;28;20163;-66
2022/03/30 03:13:26;;;;;;;52.43;26.60;;;5.50;99.90;;;;;;5074094;28;20261;-66
2022/03/30 03:15:52;;;;;;;36.40;18.53;;;5.60;99.90;;;;;;5073861;28;20164;-66
2022/03/30 03:18:18;;;;;;;47.30;23.50;;;5.60;99.90;;;;;;5074250;28;20200;-65
2022/03/30 03:20:46;;;;;;;40.43;18.30;;;5.40;99.90;;;;;;5056338;28;20171;-65
2022/03/30 03:23:12;;;;;;;54.63;26.03;;;5.60;99.90;;;;;;5073616;28;20166;-67
2022/03/30 03:25:40;;;;;;;52.07;26.87;;;5.50;99.90;;;;;;5055611;28;20551;-66
2022/03/30 03:28:10;;;;;;;52.10;23.73;;;5.60;99.90;;;;;;5073666;28;20167;-66
2022/03/30 03:30:37;;;;;;;50.03;24.93;;;5.60;99.90;;;;;;5073300;28;20588;-67
2022/03/30 03:33:03;;;;;;;37.47;18.70;;;5.70;99.90;;;;;;5055541;28;20211;-65
2022/03/30 03:35:30;;;;;;;51.00;23.43;;;5.60;99.90;;;;;;5073524;28;20214;-66
2022/03/30 03:37:56;;;;;;;39.63;18.63;;;5.60;99.90;;;;;;5075792;28;20529;-66
2022/03/30 03:40:21;;;;;;;47.97;23.23;;;5.70;99.90;;;;;;5075122;28;20304;-66
2022/03/30 03:42:48;;;;;;;54.40;25.47;;;5.60;99.90;;;;;;5073670;28;20220;-66
2022/03/30 03:45:15;;;;;;;58.07;27.60;;;5.70;99.90;;;;;;5078074;28;20176;-65
2022/03/30 03:47:41;;;;;;;56.63;26.17;;;5.70;99.90;;;;;;5076804;28;20167;-66
2022/03/30 03:50:07;;;;;;;55.60;26.63;;;5.70;99.90;;;;;;5073915;28;20175;-67
2022/03/30 03:52:33;;;;;;;57.67;27.30;;;5.60;99.90;;;;;;5072990;28;20207;-66
2022/03/30 03:54:59;;;;;;;56.10;26.50;;;5.70;99.90;;;;;;5074122;28;20229;-65
2022/03/30 03:57:24;;;;;;;58.57;26.63;;;5.70;99.90;;;;;;5073879;28;20173;-65
2022/03/30 03:59:51;;;;;;;57.87;26.80;;;5.70;99.90;;;;;;5074173;28;20182;-65
2022/03/30 04:02:16;;;;;;;62.30;29.67;;;5.70;99.90;;;;;;5075743;28;20160;-65
2022/03/30 04:04:44;;;;;;;61.53;27.27;;;5.50;99.90;;;;;;5090941;28;20183;-66
2022/03/30 04:07:09;;;;;;;59.40;27.27;;;5.50;99.90;;;;;;5075229;28;20160;-65
2022/03/30 04:09:36;;;;;;;45.37;21.43;;;5.60;99.90;;;;;;5075927;28;20159;-65
2022/03/30 04:12:02;;;;;;;52.13;25.50;;;5.50;99.90;;;;;;5076775;28;20290;-66
2022/03/30 04:14:27;;;;;;;60.33;26.43;;;5.70;99.90;;;;;;5055653;28;20174;-67
2022/03/30 04:16:53;;;;;;;51.80;25.63;;;5.70;99.90;;;;;;5073198;28;20619;-65
2022/03/30 04:19:19;;;;;;;57.10;25.93;;;5.70;99.90;;;;;;5072774;28;20171;-65
2022/03/30 04:21:45;;;;;;;44.53;18.93;;;5.80;99.90;;;;;;5073101;28;20169;-67
2022/03/30 04:24:11;;;;;;;47.07;24.43;;;5.80;99.90;;;;;;5073595;28;20156;-66
2022/03/30 04:26:38;;;;;;;52.37;25.73;;;5.80;99.90;;;;;;5073033;28;20172;-66
2022/03/30 04:29:04;;;;;;;54.20;24.43;;;5.70;99.90;;;;;;5073399;28;20213;-65
2022/03/30 04:31:30;;;;;;;46.23;20.13;;;5.70;99.90;;;;;;5073014;28;20198;-66
2022/03/30 04:33:56;;;;;;;41.13;18.67;;;5.80;99.90;;;;;;5073232;28;20313;-66
2022/03/30 04:36:22;;;;;;;61.03;26.77;;;5.70;99.90;;;;;;5055039;28;20211;-65
2022/03/30 04:38:47;;;;;;;42.27;19.50;;;5.70;99.90;;;;;;5074607;28;20529;-65
2022/03/30 04:41:13;;;;;;;42.77;20.40;;;5.80;99.90;;;;;;5077257;28;20174;-67
2022/03/30 04:43:39;;;;;;;55.70;24.10;;;5.70;99.90;;;;;;5076491;28;20663;-67
2022/03/30 04:46:06;;;;;;;50.53;25.20;;;5.90;99.90;;;;;;5076938;28;20223;-67
2022/03/30 04:48:32;;;;;;;43.33;19.60;;;5.90;99.90;;;;;;5076726;28;20269;-66
2022/03/30 04:50:58;;;;;;;53.57;26.20;;;5.80;99.90;;;;;;5058553;28;20490;-65
2022/03/30 04:53:23;;;;;;;52.17;19.77;;;5.90;99.90;;;;;;5075857;28;20201;-66
2022/03/30 04:55:49;;;;;;;52.50;26.17;;;6.00;99.90;;;;;;5076612;28;20239;-66
2022/03/30 04:58:15;;;;;;;54.07;25.47;;;5.90;99.90;;;;;;5077523;28;20244;-65
2022/03/30 05:00:41;;;;;;;62.33;27.73;;;5.90;99.90;;;;;;5078962;28;20168;-67
2022/03/30 05:03:07;;;;;;;63.47;29.13;;;6.00;99.90;;;;;;5079664;28;20158;-66
2022/03/30 05:05:33;;;;;;;43.17;20.23;;;6.00;99.90;;;;;;5082893;28;20180;-67
2022/03/30 05:07:59;;;;;;;47.93;25.27;;;6.10;99.90;;;;;;5081717;28;20184;-65
2022/03/30 05:10:25;;;;;;;52.83;27.73;;;6.00;99.90;;;;;;5084836;28;20679;-66
2022/03/30 05:12:50;;;;;;;51.07;25.33;;;6.00;99.90;;;;;;5101037;28;20203;-65
2022/03/30 05:15:16;;;;;;;41.67;20.80;;;6.00;99.90;;;;;;5078368;28;20513;-66
2022/03/30 05:17:44;;;;;;;47.10;23.87;;;6.00;99.90;;;;;;5072531;28;20218;-66
2022/03/30 05:20:15;;;;;;;54.07;25.17;;;6.00;99.90;;;;;;5080235;28;20201;-66
2022/03/30 05:22:41;;;;;;;54.47;26.40;;;6.00;99.90;;;;;;5066364;28;20274;-66
2022/03/30 05:25:08;;;;;;;55.40;24.43;;;6.00;99.90;;;;;;5072503;28;20190;-66
2022/03/30 05:27:34;;;;;;;52.37;25.60;;;5.90;99.90;;;;;;5089608;28;20211;-65
2022/03/30 05:30:02;;;;;;;37.63;17.17;;;5.90;99.90;;;;;;5068159;28;20279;-66
2022/03/30 05:32:28;;;;;;;36.13;18.00;;;6.00;99.90;;;;;;5057586;28;20665;-66
2022/03/30 05:34:54;;;;;;;45.57;21.13;;;6.20;99.90;;;;;;5084514;28;20190;-66
2022/03/30 05:37:20;;;;;;;50.20;23.20;;;6.10;99.90;;;;;;5068704;28;20641;-65
2022/03/30 05:39:46;;;;;;;54.30;23.43;;;5.90;99.90;;;;;;5079334;28;20211;-65
2022/03/30 05:42:13;;;;;;;50.80;21.53;;;6.10;99.90;;;;;;5065292;28;20184;-65
2022/03/30 05:44:39;;;;;;;45.20;21.70;;;6.00;99.90;;;;;;5088305;28;20188;-64
2022/03/30 05:47:07;;;;;;;48.67;22.83;;;5.90;99.90;;;;;;5084711;28;20190;-67
2022/03/30 05:49:36;;;;;;;44.13;19.27;;;6.10;99.90;;;;;;5081649;28;20202;-67
2022/03/30 05:52:03;;;;;;;41.17;19.13;;;6.20;99.90;;;;;;5077371;28;20315;-65
2022/03/30 05:54:29;;;;;;;37.30;14.77;;;6.10;99.90;;;;;;5076032;28;20229;-64
2022/03/30 05:57:00;;;;;;;36.13;13.70;;;6.20;99.90;;;;;;5075892;28;20176;-65
2022/03/30 05:59:37;;;;;;;39.67;18.60;;;6.20;99.90;;;;;;5091212;28;20300;-65
2022/03/30 06:02:08;;;;;;;38.57;15.80;;;6.20;99.90;;;;;;5075502;28;20183;-65
2022/03/30 06:04:34;;;;;;;42.60;19.17;;;6.00;99.90;;;;;;5074663;28;20595;-65
2022/03/30 06:06:59;;;;;;;45.90;21.80;;;6.00;99.90;;;;;;5075074;28;20175;-64
2022/03/30 06:09:26;;;;;;;30.20;14.73;;;6.20;99.90;;;;;;5075791;28;20532;-65
2022/03/30 06:11:52;;;;;;;30.17;15.67;;;6.30;99.90;;;;;;5075195;28;20198;-67
2022/03/30 06:14:18;;;;;;;51.43;20.30;;;6.10;99.90;;;;;;5059806;28;20201;-67
2022/03/30 06:16:44;;;;;;;40.93;14.97;;;6.30;99.90;;;;;;5077469;28;20533;-66
2022/03/30 06:19:11;;;;;;;33.60;14.73;;;6.40;99.90;;;;;;5077778;28;20212;-67
2022/03/30 06:21:37;;;;;;;40.57;18.77;;;6.40;99.90;;;;;;5075627;28;20491;-66
2022/03/30 06:24:03;;;;;;;35.10;17.03;;;6.40;99.90;;;;;;5074953;28;20163;-64
2022/03/30 06:26:29;;;;;;;38.77;19.17;;;6.50;99.90;;;;;;5075080;28;20156;-66
2022/03/30 06:28:56;;;;;;;43.60;18.80;;;6.40;99.90;;;;;;5076816;28;20168;-65
2022/03/30 06:31:22;;;;;;;31.50;15.10;;;6.20;99.90;;;;;;5075572;28;20170;-65
2022/03/30 06:33:48;;;;;;;31.10;13.87;;;6.60;99.90;;;;;;5074915;28;20258;-65
2022/03/30 06:36:15;;;;;;;34.93;15.60;;;6.60;99.90;;;;;;5073950;28;20176;-66
2022/03/30 06:38:42;;;;;;;29.90;13.23;;;6.50;99.90;;;;;;5074529;28;20170;-65
2022/03/30 06:41:08;;;;;;;37.10;17.10;;;6.50;99.90;;;;;;5074183;28;20168;-67
2022/03/30 06:43:36;;;;;;;30.10;12.93;;;6.60;99.90;;;;;;5074088;28;20661;-65
2022/03/30 06:46:02;;;;;;;38.03;13.50;;;6.70;99.90;;;;;;5074225;28;20297;-65
2022/03/30 06:48:30;;;;;;;40.17;16.27;;;6.50;99.90;;;;;;5074201;28;20508;-66
2022/03/30 06:50:57;;;;;;;34.00;15.77;;;6.60;99.90;;;;;;5074293;28;20170;-67
2022/03/30 06:53:22;;;;;;;39.63;17.53;;;6.50;99.90;;;;;;5073830;28;20203;-67
2022/03/30 06:55:48;;;;;;;29.87;15.30;;;6.40;99.90;;;;;;5054286;28;20608;-66
2022/03/30 06:58:14;;;;;;;31.50;16.43;;;6.20;99.90;;;;;;5069346;28;20510;-65
2022/03/30 07:00:39;;;;;;;36.90;17.37;;;6.40;99.90;;;;;;5053596;28;20161;-66
2022/03/30 07:03:05;;;;;;;34.53;17.37;;;6.50;99.90;;;;;;5054309;28;20175;-67
2022/03/30 07:05:32;;;;;;;34.67;17.37;;;6.70;99.90;;;;;;5053548;28;20214;-66
2022/03/30 07:10:42;;;;;;;26.57;13.87;;;6.90;99.90;;;;;;5053788;28;20179;-64
2022/03/30 07:13:07;;;;;;;25.77;12.90;;;6.90;99.90;;;;;;5054003;28;20196;-66
2022/03/30 07:15:33;;;;;;;28.40;13.13;;;6.80;99.90;;;;;;5053899;28;20165;-64
2022/03/30 07:18:00;;;;;;;33.20;13.10;;;6.80;99.90;;;;;;5053757;28;20200;-65
2022/03/30 07:20:27;;;;;;;25.13;13.13;;;6.90;99.90;;;;;;5035599;28;20179;-67
2022/03/30 07:22:53;;;;;;;30.67;14.30;;;6.90;99.90;;;;;;5054086;28;20670;-66
2022/03/30 07:25:21;;;;;;;33.87;13.97;;;6.90;99.90;;;;;;5054249;28;20169;-65
2022/03/30 07:27:50;;;;;;;31.03;14.23;;;6.70;99.90;;;;;;5053740;28;20175;-65
2022/03/30 07:30:16;;;;;;;23.83;12.73;;;6.80;99.90;;;;;;5053598;28;20535;-67
2022/03/30 07:32:45;;;;;;;28.90;14.03;;;7.00;99.90;;;;;;5053620;28;20195;-66
2022/03/30 07:35:13;;;;;;;28.70;13.10;;;7.20;99.90;;;;;;5054336;28;20222;-70
2022/03/30 07:37:40;;;;;;;30.70;15.07;;;7.10;99.90;;;;;;5055227;28;20173;-66
2022/03/30 07:40:08;;;;;;;28.40;13.90;;;6.90;99.90;;;;;;5057003;28;20181;-65
2022/03/30 07:42:34;;;;;;;28.90;15.30;;;6.90;99.90;;;;;;5058200;28;20247;-66
2022/03/30 07:44:59;;;;;;;30.57;13.83;;;7.00;99.90;;;;;;5058064;28;20168;-66
2022/03/30 07:47:25;;;;;;;32.57;15.63;;;7.00;99.90;;;;;;5057817;28;20169;-66
2022/03/30 07:49:52;;;;;;;38.17;15.07;;;7.00;99.90;;;;;;5057252;28;20222;-65
2022/03/30 07:52:18;;;;;;;29.90;15.13;;;7.00;99.90;;;;;;5036540;28;20269;-65
2022/03/30 07:54:44;;;;;;;35.67;15.27;;;7.10;99.90;;;;;;5065739;28;20223;-67
2022/03/30 07:57:10;;;;;;;38.13;15.93;;;7.30;99.90;;;;;;5073677;28;20248;-65
2022/03/30 07:59:35;;;;;;;38.17;17.70;;;7.30;99.90;;;;;;5073592;28;20231;-66
2022/03/30 08:02:02;;;;;;;32.50;15.73;;;7.30;99.90;;;;;;5077317;28;20167;-66
2022/03/30 08:04:28;;;;;;;37.80;16.60;;;7.30;99.90;;;;;;5082296;28;20219;-67
2022/03/30 08:06:54;;;;;;;33.00;15.77;;;7.20;99.90;;;;;;5090240;28;20228;-67
2022/03/30 08:09:20;;;;;;;32.80;17.77;;;7.30;99.90;;;;;;5074924;28;20246;-66
2022/03/30 08:11:46;;;;;;;34.23;16.87;;;7.30;99.90;;;;;;5062681;28;20204;-65
2022/03/30 08:14:12;;;;;;;37.43;16.50;;;7.60;99.90;;;;;;5070703;28;20228;-65
2022/03/30 08:16:39;;;;;;;30.57;14.70;;;7.60;99.90;;;;;;5089906;28;20176;-66
2022/03/30 08:19:05;;;;;;;31.43;15.43;;;7.40;99.90;;;;;;5071547;28;20175;-67
2022/03/30 08:24:15;;;;;;;28.93;14.10;;;7.50;99.90;;;;;;5081595;28;20164;-65
2022/03/30 08:26:41;;;;;;;28.87;13.40;;;7.40;99.90;;;;;;5077019;28;20170;-67
2022/03/30 08:29:08;;;;;;;29.90;14.70;;;7.40;99.90;;;;;;5077297;28;20164;-66
2022/03/30 08:31:34;;;;;;;42.93;22.43;;;7.30;99.90;;;;;;5076946;28;20156;-65
2022/03/30 08:34:00;;;;;;;38.40;13.97;;;7.40;99.90;;;;;;5076671;28;20168;-65
2022/03/30 08:36:30;;;;;;;25.03;12.83;;;7.50;99.90;;;;;;5076803;28;20258;-65
2022/03/30 08:39:05;;;;;;;31.70;15.17;;;7.60;99.90;;;;;;5076491;28;20167;-66
2022/03/30 08:41:31;;;;;;;34.00;16.03;;;7.60;99.90;;;;;;5076953;28;20661;-65
2022/03/30 08:43:59;;;;;;;34.23;16.17;;;7.70;99.90;;;;;;5077078;28;20188;-66
2022/03/30 08:46:25;;;;;;;24.90;12.93;;;7.50;99.90;;;;;;5076908;28;20627;-66
2022/03/30 08:48:51;;;;;;;27.93;13.47;;;7.60;99.90;;;;;;5092519;28;20178;-66
2022/03/30 08:51:20;;;;;;;26.03;13.80;;;7.70;99.90;;;;;;5076489;28;20301;-67
2022/03/30 08:53:47;;;;;;;37.97;13.43;;;7.70;99.90;;;;;;5076085;28;20230;-65
2022/03/30 08:56:12;;;;;;;29.43;13.50;;;7.80;99.90;;;;;;5076531;28;20161;-68
2022/03/30 08:58:39;;;;;;;30.23;13.33;;;7.70;99.90;;;;;;5076375;28;20194;-66
2022/03/30 09:01:09;;;;;;;28.37;14.10;;;7.70;99.90;;;;;;5076788;28;20223;-66
2022/03/30 09:03:34;;;;;;;31.57;13.57;;;7.70;99.90;;;;;;5076091;28;20170;-67
2022/03/30 09:06:01;;;;;;;24.50;12.93;;;7.70;99.90;;;;;;5076559;28;20172;-65
2022/03/30 09:08:27;;;;;;;26.27;11.67;;;7.80;99.90;;;;;;5075832;28;20171;-65
2022/03/30 09:10:58;;;;;;;25.73;11.87;;;7.70;99.90;;;;;;5076232;28;20215;-66
2022/03/30 09:13:23;;;;;;;24.33;13.10;;;7.80;99.90;;;;;;5076230;28;20203;-65
2022/03/30 09:15:51;;;;;;;27.77;14.40;;;7.80;99.90;;;;;;5075982;28;20243;-65
2022/03/30 09:18:17;;;;;;;32.37;14.30;;;7.90;99.90;;;;;;5075949;28;20708;-65
2022/03/30 09:20:47;;;;;;;32.03;13.73;;;7.80;99.90;;;;;;5077734;28;20163;-66
2022/03/30 09:23:14;;;;;;;28.30;14.23;;;7.80;99.90;;;;;;5076229;28;20176;-66
2022/03/30 09:25:44;;;;;;;33.03;14.30;;;7.80;99.90;;;;;;5074845;28;20150;-66
2022/03/30 09:28:10;;;;;;;28.53;14.13;;;7.80;99.90;;;;;;5075809;28;20180;-65
2022/03/30 09:30:36;;;;;;;26.80;12.90;;;7.80;99.90;;;;;;5091016;28;20175;-66
2022/03/30 09:33:02;;;;;;;32.20;13.70;;;7.70;99.90;;;;;;5075789;28;20581;-64
2022/03/30 09:35:41;;;;;;;25.40;13.67;;;7.70;99.90;;;;;;5075535;28;20187;-66
2022/03/30 09:38:15;;;;;;;58.90;26.47;;;7.80;99.90;;;;;;5075855;28;20599;-66
2022/03/30 09:40:40;;;;;;;32.67;16.60;;;7.80;99.90;;;;;;5075893;28;20606;-65
2022/03/30 09:43:22;;;;;;;31.70;15.60;;;7.90;99.90;;;;;;5075875;28;20166;-66
2022/03/30 09:46:13;;;;;;;27.33;14.30;;;7.70;99.90;;;;;;5076008;28;20169;-65
2022/03/30 09:48:50;;;;;;;33.57;16.50;;;7.70;99.90;;;;;;5075334;28;20152;-66
2022/03/30 09:51:18;;;;;;;31.40;15.37;;;7.70;99.90;;;;;;5075583;28;20181;-65
2022/03/30 09:53:44;;;;;;;29.97;15.00;;;7.70;99.90;;;;;;5075010;28;20360;-66
2022/03/30 09:56:14;;;;;;;31.37;15.83;;;8.00;99.90;;;;;;5057172;28;20186;-65
2022/03/30 09:58:40;;;;;;;31.23;13.90;;;7.80;99.90;;;;;;5075412;28;20165;-65
2022/03/30 10:01:08;;;;;;;35.33;15.67;;;7.70;99.90;;;;;;5075381;28;20176;-65
2022/03/30 10:03:45;;;;;;;36.27;15.90;;;7.50;99.90;;;;;;5075499;28;20180;-65
2022/03/30 10:06:16;;;;;;;27.13;12.67;;;7.70;99.90;;;;;;5075629;28;20162;-65
2022/03/30 10:08:45;;;;;;;29.90;13.77;;;7.70;99.90;;;;;;5076908;28;20165;-65
2022/03/30 10:11:12;;;;;;;26.77;12.90;;;7.60;99.90;;;;;;5075991;28;20621;-68
2022/03/30 10:13:39;;;;;;;27.83;13.60;;;7.70;99.90;;;;;;5078726;28;20282;-64
2022/03/30 10:16:09;;;;;;;34.37;14.77;;;7.70;99.90;;;;;;5077565;28;20170;-64
2022/03/30 10:18:35;;;;;;;23.50;12.20;;;7.70;99.90;;;;;;5078547;28;20235;-64
2022/03/30 10:21:15;;;;;;;31.73;14.53;;;7.70;99.90;;;;;;5075270;28;20184;-67
2022/03/30 10:24:09;;;;;;;28.80;12.30;;;7.60;99.90;;;;;;5081958;28;20224;-65
2022/03/30 10:26:48;;;;;;;27.73;13.37;;;7.60;99.90;;;;;;5080409;28;20174;-66
2022/03/30 10:29:16;;;;;;;33.03;12.90;;;7.50;99.90;;;;;;5083671;28;20170;-66
2022/03/30 10:31:42;;;;;;;24.33;11.03;;;7.60;99.90;;;;;;5081267;28;20297;-65
2022/03/30 10:35:00;;;;;;;22.23;11.27;;;7.70;99.90;;;;;;5075238;28;20608;-65
2022/03/30 10:37:28;;;;;;;24.23;10.07;;;7.50;99.90;;;;;;5048498;28;20196;-64
2022/03/30 10:39:53;;;;;;;18.20;10.07;;;7.80;99.90;;;;;;5074545;28;20487;-64
2022/03/30 10:42:19;;;;;;;21.57;9.10;;;7.90;99.90;;;;;;5074833;28;20165;-66
2022/03/30 10:44:46;;;;;;;22.73;10.43;;;7.70;99.90;;;;;;5076073;28;20252;-63
2022/03/30 10:47:22;;;;;;;26.87;11.30;;;7.70;99.90;;;;;;5078944;28;20167;-64
2022/03/30 10:49:56;;;;;;;21.23;8.27;;;7.60;99.90;;;;;;5077931;28;20227;-64
2022/03/30 10:52:40;;;;;;;20.17;8.83;;;7.50;99.90;;;;;;5074461;28;20191;-64
2022/03/30 10:55:15;;;;;;;17.83;8.73;;;7.60;99.90;;;;;;5074383;28;20649;-63
2022/03/30 10:57:47;;;;;;;20.50;9.60;;;7.60;99.90;;;;;;5074055;28;20155;-64
2022/03/30 11:00:18;;;;;;;22.17;8.70;;;7.60;99.90;;;;;;5074029;28;20484;-63
2022/03/30 11:02:45;;;;;;;23.50;10.93;;;7.60;99.90;;;;;;5073965;28;20167;-63
2022/03/30 11:05:13;;;;;;;16.57;8.20;;;7.50;99.90;;;;;;5073642;28;20157;-63
2022/03/30 11:07:40;;;;;;;23.27;8.87;;;7.50;99.90;;;;;;5073691;28;20470;-63
2022/03/30 11:10:19;;;;;;;16.13;7.83;;;7.30;99.90;;;;;;5074119;28;20167;-64
2022/03/30 11:12:57;;;;;;;14.83;8.10;;;7.50;99.90;;;;;;5073751;28;20194;-63
2022/03/30 11:15:23;;;;;;;15.50;7.30;;;7.30;99.90;;;;;;5073496;28;20173;-64
2022/03/30 11:17:49;;;;;;;17.37;8.93;;;7.40;99.90;;;;;;5073416;28;20505;-64
2022/03/30 11:20:16;;;;;;;21.23;9.20;;;7.60;99.90;;;;;;5073930;28;20162;-64
2022/03/30 11:22:44;;;;;;;19.43;9.20;;;7.70;99.90;;;;;;5073851;28;20169;-64
2022/03/30 11:25:30;;;;;;;18.27;8.90;;;7.60;99.90;;;;;;5074338;28;20165;-64
2022/03/30 11:27:58;;;;;;;21.13;8.80;;;7.70;99.90;;;;;;5073739;28;20163;-64
2022/03/30 11:30:29;;;;;;;24.50;9.20;;;7.70;99.90;;;;;;5073532;28;20170;-64
2022/03/30 11:32:56;;;;;;;17.67;7.87;;;7.70;99.90;;;;;;5073402;28;20251;-64
2022/03/30 11:35:25;;;;;;;18.53;9.47;;;7.60;99.90;;;;;;5073715;28;20173;-65
2022/03/30 11:37:57;;;;;;;17.00;9.40;;;7.70;99.90;;;;;;5074017;28;20181;-64
2022/03/30 11:40:24;;;;;;;20.00;8.97;;;7.80;99.90;;;;;;5074453;28;20168;-64
2022/03/30 11:42:55;;;;;;;22.30;9.20;;;7.80;99.90;;;;;;5073702;28;20600;-64
2022/03/30 11:45:24;;;;;;;21.90;9.20;;;7.70;99.90;;;;;;5074220;28;20606;-64
2022/03/30 11:47:50;;;;;;;21.27;9.27;;;7.60;99.90;;;;;;5077756;28;20172;-63
2022/03/30 11:50:17;;;;;;;16.97;9.33;;;7.70;99.90;;;;;;5082250;28;20168;-64
2022/03/30 11:53:00;;;;;;;18.20;8.43;;;7.80;99.90;;;;;;5079624;28;20202;-64
2022/03/30 11:55:30;;;;;;;18.43;9.40;;;7.80;99.90;;;;;;5078351;28;20652;-64
2022/03/30 11:57:57;;;;;;;22.30;9.20;;;7.70;99.90;;;;;;5077705;28;20261;-64
2022/03/30 12:00:25;;;;;;;22.63;9.33;;;7.80;99.90;;;;;;5077711;28;20161;-64
2022/03/30 12:02:55;;;;;;;23.47;9.57;;;7.70;99.90;;;;;;5077497;28;20177;-64
2022/03/30 12:05:21;;;;;;;15.77;9.00;;;7.80;99.90;;;;;;5077707;28;20159;-64
2022/03/30 12:07:52;;;;;;;21.43;9.33;;;7.90;99.90;;;;;;5078171;28;20189;-64
2022/03/30 12:10:18;;;;;;;17.53;8.77;;;7.90;99.90;;;;;;5079155;28;20162;-64
2022/03/30 12:12:44;;;;;;;18.10;8.33;;;8.10;99.90;;;;;;5063676;28;20243;-65
2022/03/30 12:15:11;;;;;;;17.23;8.53;;;8.10;99.90;;;;;;5077458;28;20168;-64
2022/03/30 12:17:37;;;;;;;14.10;7.90;;;8.00;99.90;;;;;;5059418;28;20286;-65
2022/03/30 12:20:06;;;;;;;15.27;8.23;;;8.00;99.90;;;;;;5063334;28;20194;-64
2022/03/30 12:22:33;;;;;;;15.37;7.83;;;7.90;99.90;;;;;;5079328;28;20175;-63
2022/03/30 12:24:58;;;;;;;10.17;6.47;;;7.90;99.90;;;;;;5076420;28;20535;-64
2022/03/30 12:27:25;;;;;;;13.53;6.23;;;7.80;99.90;;;;;;5059094;28;20221;-64
2022/03/30 12:29:55;;;;;;;13.27;7.23;;;7.90;99.90;;;;;;5076962;28;20164;-63
2022/03/30 12:32:24;;;;;;;18.60;6.00;;;8.00;99.90;;;;;;5076897;28;20195;-64
2022/03/30 12:35:10;;;;;;;15.47;6.60;;;8.10;99.90;;;;;;5078799;28;20191;-64
2022/03/30 12:37:36;;;;;;;10.50;6.47;;;7.90;99.90;;;;;;5078677;28;20190;-64
2022/03/30 12:40:10;;;;;;;12.43;5.93;;;7.80;99.90;;;;;;5080399;28;20186;-63
2022/03/30 12:42:37;;;;;;;17.20;6.80;;;7.90;99.90;;;;;;5062408;28;20189;-63
2022/03/30 12:45:10;;;;;;;15.30;6.60;;;7.70;99.90;;;;;;5079420;28;20167;-63
2022/03/30 12:47:51;;;;;;;10.80;6.23;;;7.70;99.90;;;;;;5076906;28;20679;-65